sensor_id;sensor_type;location;lat;lon;timestamp;P1;durP1;ratioP1;P2;durP2;ratioP2
14892;SDS011;7538;53.626;9.906;2023-04-26T00:01:53;6.30;;;1.70;;
14892;SDS011;7538;53.626;9.906;2023-04-26T00:04:22;3.63;;;1.37;;
14892;SDS011;7538;53.626;9.906;2023-04-26T00:06:49;5.23;;;1.50;;
14892;SDS011;7538;53.626;9.906;2023-04-26T00:09:16;6.27;;;1.80;;
14892;SDS011;7538;53.626;9.906;2023-04-26T00:11:44;4.13;;;1.83;;
14892;SDS011;7538;53.626;9.906;2023-04-26T00:14:11;5.63;;;1.50;;
14892;SDS011;7538;53.626;9.906;2023-04-26T00:16:38;6.97;;;1.80;;
14892;SDS011;7538;53.626;9.906;2023-04-26T00:19:04;6.17;;;1.70;;
14892;SDS011;7538;53.626;9.906;2023-04-26T00:21:33;5.20;;;1.47;;
14892;SDS011;7538;53.626;9.906;2023-04-26T00:23:59;5.70;;;1.90;;
14892;SDS011;7538;53.626;9.906;2023-04-26T00:26:26;4.93;;;1.50;;
14892;SDS011;7538;53.626;9.906;2023-04-26T00:28:53;8.77;;;1.80;;
14892;SDS011;7538;53.626;9.906;2023-04-26T00:31:20;3.53;;;1.13;;
14892;SDS011;7538;53.626;9.906;2023-04-26T00:33:47;6.73;;;1.73;;
14892;SDS011;7538;53.626;9.906;2023-04-26T00:36:14;3.03;;;1.50;;
14892;SDS011;7538;53.626;9.906;2023-04-26T00:38:44;6.10;;;1.53;;
14892;SDS011;7538;53.626;9.906;2023-04-26T00:41:11;4.27;;;1.27;;
14892;SDS011;7538;53.626;9.906;2023-04-26T00:43:38;4.03;;;1.40;;
14892;SDS011;7538;53.626;9.906;2023-04-26T00:46:05;3.97;;;1.10;;
14892;SDS011;7538;53.626;9.906;2023-04-26T00:48:33;4.00;;;1.67;;
14892;SDS011;7538;53.626;9.906;2023-04-26T00:51:02;5.40;;;1.93;;
14892;SDS011;7538;53.626;9.906;2023-04-26T00:53:30;4.97;;;2.10;;
14892;SDS011;7538;53.626;9.906;2023-04-26T00:55:59;6.83;;;1.60;;
14892;SDS011;7538;53.626;9.906;2023-04-26T00:58:27;7.13;;;1.60;;
14892;SDS011;7538;53.626;9.906;2023-04-26T01:00:55;7.10;;;2.07;;
14892;SDS011;7538;53.626;9.906;2023-04-26T01:03:22;4.10;;;1.90;;
14892;SDS011;7538;53.626;9.906;2023-04-26T01:05:49;6.67;;;2.00;;
14892;SDS011;7538;53.626;9.906;2023-04-26T01:08:16;5.77;;;1.70;;
14892;SDS011;7538;53.626;9.906;2023-04-26T01:10:45;5.27;;;1.93;;
14892;SDS011;7538;53.626;9.906;2023-04-26T01:13:14;6.57;;;1.73;;
14892;SDS011;7538;53.626;9.906;2023-04-26T01:15:42;7.20;;;1.77;;
14892;SDS011;7538;53.626;9.906;2023-04-26T01:18:10;6.10;;;2.00;;
14892;SDS011;7538;53.626;9.906;2023-04-26T01:20:37;4.97;;;1.67;;
14892;SDS011;7538;53.626;9.906;2023-04-26T01:23:07;4.20;;;1.80;;
14892;SDS011;7538;53.626;9.906;2023-04-26T01:25:34;5.77;;;2.00;;
14892;SDS011;7538;53.626;9.906;2023-04-26T01:28:01;6.87;;;2.03;;
14892;SDS011;7538;53.626;9.906;2023-04-26T01:30:28;8.87;;;2.90;;
14892;SDS011;7538;53.626;9.906;2023-04-26T01:32:55;6.40;;;2.40;;
14892;SDS011;7538;53.626;9.906;2023-04-26T01:35:22;5.67;;;2.20;;
14892;SDS011;7538;53.626;9.906;2023-04-26T01:37:48;10.50;;;2.70;;
14892;SDS011;7538;53.626;9.906;2023-04-26T01:40:17;9.93;;;3.00;;
14892;SDS011;7538;53.626;9.906;2023-04-26T01:42:44;8.27;;;2.70;;
14892;SDS011;7538;53.626;9.906;2023-04-26T01:45:10;4.90;;;2.20;;
14892;SDS011;7538;53.626;9.906;2023-04-26T01:47:37;10.70;;;2.67;;
14892;SDS011;7538;53.626;9.906;2023-04-26T01:50:05;10.63;;;2.90;;
14892;SDS011;7538;53.626;9.906;2023-04-26T01:52:33;6.67;;;2.60;;
14892;SDS011;7538;53.626;9.906;2023-04-26T01:55:00;7.50;;;2.37;;
14892;SDS011;7538;53.626;9.906;2023-04-26T01:57:28;6.63;;;2.63;;
14892;SDS011;7538;53.626;9.906;2023-04-26T01:59:55;4.53;;;2.03;;
14892;SDS011;7538;53.626;9.906;2023-04-26T02:02:23;5.70;;;2.27;;
14892;SDS011;7538;53.626;9.906;2023-04-26T02:04:50;6.47;;;2.43;;
14892;SDS011;7538;53.626;9.906;2023-04-26T02:07:17;8.27;;;2.60;;
14892;SDS011;7538;53.626;9.906;2023-04-26T02:09:44;6.83;;;2.47;;
14892;SDS011;7538;53.626;9.906;2023-04-26T02:12:11;7.07;;;2.27;;
14892;SDS011;7538;53.626;9.906;2023-04-26T02:14:39;7.13;;;2.60;;
14892;SDS011;7538;53.626;9.906;2023-04-26T02:17:06;6.03;;;2.43;;
14892;SDS011;7538;53.626;9.906;2023-04-26T02:19:33;7.53;;;3.37;;
14892;SDS011;7538;53.626;9.906;2023-04-26T02:21:59;10.07;;;3.23;;
14892;SDS011;7538;53.626;9.906;2023-04-26T02:24:26;6.87;;;3.10;;
14892;SDS011;7538;53.626;9.906;2023-04-26T02:26:53;7.57;;;3.03;;
14892;SDS011;7538;53.626;9.906;2023-04-26T02:29:24;8.60;;;3.10;;
14892;SDS011;7538;53.626;9.906;2023-04-26T02:31:52;7.83;;;2.87;;
14892;SDS011;7538;53.626;9.906;2023-04-26T02:34:19;5.57;;;3.00;;
14892;SDS011;7538;53.626;9.906;2023-04-26T02:36:46;9.03;;;3.17;;
14892;SDS011;7538;53.626;9.906;2023-04-26T02:39:13;5.40;;;2.20;;
14892;SDS011;7538;53.626;9.906;2023-04-26T02:41:40;6.13;;;2.50;;
14892;SDS011;7538;53.626;9.906;2023-04-26T02:44:07;5.53;;;2.40;;
14892;SDS011;7538;53.626;9.906;2023-04-26T02:46:35;6.23;;;2.40;;
14892;SDS011;7538;53.626;9.906;2023-04-26T02:49:03;4.67;;;1.93;;
14892;SDS011;7538;53.626;9.906;2023-04-26T02:51:31;6.43;;;2.30;;
14892;SDS011;7538;53.626;9.906;2023-04-26T02:53:58;9.33;;;2.63;;
14892;SDS011;7538;53.626;9.906;2023-04-26T02:56:25;7.10;;;2.73;;
14892;SDS011;7538;53.626;9.906;2023-04-26T02:58:52;6.27;;;2.40;;
14892;SDS011;7538;53.626;9.906;2023-04-26T03:01:19;7.17;;;2.37;;
14892;SDS011;7538;53.626;9.906;2023-04-26T03:03:46;7.03;;;2.83;;
14892;SDS011;7538;53.626;9.906;2023-04-26T03:06:14;9.97;;;2.90;;
14892;SDS011;7538;53.626;9.906;2023-04-26T03:08:41;13.57;;;3.43;;
14892;SDS011;7538;53.626;9.906;2023-04-26T03:11:08;10.60;;;4.10;;
14892;SDS011;7538;53.626;9.906;2023-04-26T03:13:35;6.97;;;3.10;;
14892;SDS011;7538;53.626;9.906;2023-04-26T03:16:02;9.17;;;3.50;;
14892;SDS011;7538;53.626;9.906;2023-04-26T03:18:29;8.03;;;4.00;;
14892;SDS011;7538;53.626;9.906;2023-04-26T03:20:56;10.23;;;4.10;;
14892;SDS011;7538;53.626;9.906;2023-04-26T03:23:24;7.90;;;3.40;;
14892;SDS011;7538;53.626;9.906;2023-04-26T03:25:51;9.93;;;3.80;;
14892;SDS011;7538;53.626;9.906;2023-04-26T03:28:18;11.63;;;4.13;;
14892;SDS011;7538;53.626;9.906;2023-04-26T03:30:45;8.50;;;3.57;;
14892;SDS011;7538;53.626;9.906;2023-04-26T03:33:13;10.13;;;3.03;;
14892;SDS011;7538;53.626;9.906;2023-04-26T03:35:40;9.60;;;3.63;;
14892;SDS011;7538;53.626;9.906;2023-04-26T03:38:08;9.73;;;4.00;;
14892;SDS011;7538;53.626;9.906;2023-04-26T03:40:36;7.70;;;3.23;;
14892;SDS011;7538;53.626;9.906;2023-04-26T03:43:03;5.77;;;3.13;;
14892;SDS011;7538;53.626;9.906;2023-04-26T03:45:30;7.47;;;3.23;;
14892;SDS011;7538;53.626;9.906;2023-04-26T03:47:56;4.33;;;2.67;;
14892;SDS011;7538;53.626;9.906;2023-04-26T03:50:23;8.87;;;3.37;;
14892;SDS011;7538;53.626;9.906;2023-04-26T03:52:50;5.67;;;2.97;;
14892;SDS011;7538;53.626;9.906;2023-04-26T03:55:18;11.10;;;3.20;;
14892;SDS011;7538;53.626;9.906;2023-04-26T03:57:46;4.77;;;2.80;;
14892;SDS011;7538;53.626;9.906;2023-04-26T04:00:14;6.93;;;2.83;;
14892;SDS011;7538;53.626;9.906;2023-04-26T04:02:41;8.53;;;2.80;;
14892;SDS011;7538;53.626;9.906;2023-04-26T04:05:08;7.33;;;3.03;;
14892;SDS011;7538;53.626;9.906;2023-04-26T04:07:35;6.10;;;2.73;;
14892;SDS011;7538;53.626;9.906;2023-04-26T04:10:02;5.93;;;2.67;;
14892;SDS011;7538;53.626;9.906;2023-04-26T04:12:29;6.57;;;2.57;;
14892;SDS011;7538;53.626;9.906;2023-04-26T04:14:57;5.30;;;2.73;;
14892;SDS011;7538;53.626;9.906;2023-04-26T04:17:24;8.20;;;2.90;;
14892;SDS011;7538;53.626;9.906;2023-04-26T04:19:51;6.43;;;3.47;;
14892;SDS011;7538;53.626;9.906;2023-04-26T04:22:18;8.07;;;3.17;;
14892;SDS011;7538;53.626;9.906;2023-04-26T04:24:44;6.37;;;3.20;;
14892;SDS011;7538;53.626;9.906;2023-04-26T04:27:11;11.77;;;3.43;;
14892;SDS011;7538;53.626;9.906;2023-04-26T04:29:39;7.00;;;3.17;;
14892;SDS011;7538;53.626;9.906;2023-04-26T04:32:07;6.30;;;3.13;;
14892;SDS011;7538;53.626;9.906;2023-04-26T04:34:35;10.60;;;3.50;;
14892;SDS011;7538;53.626;9.906;2023-04-26T04:37:02;10.80;;;3.77;;
14892;SDS011;7538;53.626;9.906;2023-04-26T04:39:29;6.77;;;3.17;;
14892;SDS011;7538;53.626;9.906;2023-04-26T04:41:56;6.93;;;3.57;;
14892;SDS011;7538;53.626;9.906;2023-04-26T04:44:24;10.73;;;3.47;;
14892;SDS011;7538;53.626;9.906;2023-04-26T04:46:51;7.07;;;3.50;;
14892;SDS011;7538;53.626;9.906;2023-04-26T04:49:20;7.80;;;3.77;;
14892;SDS011;7538;53.626;9.906;2023-04-26T04:51:48;7.77;;;3.80;;
14892;SDS011;7538;53.626;9.906;2023-04-26T04:54:16;7.57;;;4.50;;
14892;SDS011;7538;53.626;9.906;2023-04-26T04:56:43;9.80;;;3.50;;
14892;SDS011;7538;53.626;9.906;2023-04-26T04:59:10;6.07;;;3.47;;
14892;SDS011;7538;53.626;9.906;2023-04-26T05:01:37;9.13;;;3.37;;
14892;SDS011;7538;53.626;9.906;2023-04-26T05:04:04;5.97;;;3.20;;
14892;SDS011;7538;53.626;9.906;2023-04-26T05:06:33;6.73;;;3.47;;
14892;SDS011;7538;53.626;9.906;2023-04-26T05:09:00;9.40;;;3.50;;
14892;SDS011;7538;53.626;9.906;2023-04-26T05:11:29;8.90;;;3.50;;
14892;SDS011;7538;53.626;9.906;2023-04-26T05:13:56;6.97;;;3.23;;
14892;SDS011;7538;53.626;9.906;2023-04-26T05:16:23;7.03;;;2.93;;
14892;SDS011;7538;53.626;9.906;2023-04-26T05:18:50;7.47;;;3.43;;
14892;SDS011;7538;53.626;9.906;2023-04-26T05:21:17;6.17;;;3.10;;
14892;SDS011;7538;53.626;9.906;2023-04-26T05:23:45;4.67;;;3.13;;
14892;SDS011;7538;53.626;9.906;2023-04-26T05:26:12;8.27;;;3.57;;
14892;SDS011;7538;53.626;9.906;2023-04-26T05:28:40;6.63;;;3.47;;
14892;SDS011;7538;53.626;9.906;2023-04-26T05:31:07;6.07;;;3.73;;
14892;SDS011;7538;53.626;9.906;2023-04-26T05:33:35;7.03;;;3.50;;
14892;SDS011;7538;53.626;9.906;2023-04-26T05:36:02;7.00;;;3.63;;
14892;SDS011;7538;53.626;9.906;2023-04-26T05:38:29;11.47;;;4.77;;
14892;SDS011;7538;53.626;9.906;2023-04-26T05:40:57;8.13;;;3.40;;
14892;SDS011;7538;53.626;9.906;2023-04-26T05:43:24;7.13;;;3.50;;
14892;SDS011;7538;53.626;9.906;2023-04-26T05:45:51;8.27;;;2.80;;
14892;SDS011;7538;53.626;9.906;2023-04-26T05:48:19;6.93;;;2.63;;
14892;SDS011;7538;53.626;9.906;2023-04-26T05:50:46;6.33;;;2.87;;
14892;SDS011;7538;53.626;9.906;2023-04-26T05:53:13;6.17;;;2.83;;
14892;SDS011;7538;53.626;9.906;2023-04-26T05:55:40;5.43;;;2.70;;
14892;SDS011;7538;53.626;9.906;2023-04-26T05:58:08;3.20;;;2.70;;
14892;SDS011;7538;53.626;9.906;2023-04-26T06:00:36;5.33;;;3.50;;
14892;SDS011;7538;53.626;9.906;2023-04-26T06:03:03;5.57;;;3.10;;
14892;SDS011;7538;53.626;9.906;2023-04-26T06:05:30;5.32;;;2.70;;
14892;SDS011;7538;53.626;9.906;2023-04-26T06:07:57;4.80;;;2.65;;
14892;SDS011;7538;53.626;9.906;2023-04-26T06:10:25;6.30;;;2.50;;
14892;SDS011;7538;53.626;9.906;2023-04-26T06:12:52;4.20;;;2.60;;
14892;SDS011;7538;53.626;9.906;2023-04-26T06:15:20;3.95;;;2.17;;
14892;SDS011;7538;53.626;9.906;2023-04-26T06:17:47;4.43;;;2.40;;
14892;SDS011;7538;53.626;9.906;2023-04-26T06:20:14;7.38;;;2.70;;
14892;SDS011;7538;53.626;9.906;2023-04-26T06:22:41;4.60;;;2.38;;
14892;SDS011;7538;53.626;9.906;2023-04-26T06:25:08;7.07;;;2.20;;
14892;SDS011;7538;53.626;9.906;2023-04-26T06:27:35;6.13;;;2.60;;
14892;SDS011;7538;53.626;9.906;2023-04-26T06:30:03;4.32;;;2.40;;
14892;SDS011;7538;53.626;9.906;2023-04-26T06:32:33;7.05;;;2.53;;
14892;SDS011;7538;53.626;9.906;2023-04-26T06:35:00;6.30;;;2.15;;
14892;SDS011;7538;53.626;9.906;2023-04-26T06:37:27;4.38;;;2.00;;
14892;SDS011;7538;53.626;9.906;2023-04-26T06:39:54;5.20;;;2.20;;
14892;SDS011;7538;53.626;9.906;2023-04-26T06:42:21;4.43;;;1.98;;
14892;SDS011;7538;53.626;9.906;2023-04-26T06:44:47;5.70;;;2.35;;
14892;SDS011;7538;53.626;9.906;2023-04-26T06:47:14;4.47;;;2.08;;
14892;SDS011;7538;53.626;9.906;2023-04-26T06:49:43;5.60;;;2.30;;
14892;SDS011;7538;53.626;9.906;2023-04-26T06:52:09;5.30;;;2.10;;
14892;SDS011;7538;53.626;9.906;2023-04-26T06:54:36;3.28;;;2.15;;
14892;SDS011;7538;53.626;9.906;2023-04-26T06:57:03;4.38;;;2.13;;
14892;SDS011;7538;53.626;9.906;2023-04-26T06:59:30;7.05;;;2.33;;
14892;SDS011;7538;53.626;9.906;2023-04-26T07:01:57;4.75;;;2.53;;
14892;SDS011;7538;53.626;9.906;2023-04-26T07:04:24;6.95;;;2.67;;
14892;SDS011;7538;53.626;9.906;2023-04-26T07:06:53;4.40;;;2.58;;
14892;SDS011;7538;53.626;9.906;2023-04-26T07:09:19;4.22;;;1.90;;
14892;SDS011;7538;53.626;9.906;2023-04-26T07:11:47;5.75;;;2.50;;
14892;SDS011;7538;53.626;9.906;2023-04-26T07:14:14;4.97;;;2.25;;
14892;SDS011;7538;53.626;9.906;2023-04-26T07:16:41;5.07;;;2.25;;
14892;SDS011;7538;53.626;9.906;2023-04-26T07:19:08;3.03;;;1.98;;
14892;SDS011;7538;53.626;9.906;2023-04-26T07:21:35;6.82;;;2.60;;
14892;SDS011;7538;53.626;9.906;2023-04-26T07:24:03;3.72;;;1.88;;
14892;SDS011;7538;53.626;9.906;2023-04-26T07:26:30;4.57;;;2.20;;
14892;SDS011;7538;53.626;9.906;2023-04-26T07:28:57;6.13;;;2.30;;
14892;SDS011;7538;53.626;9.906;2023-04-26T07:31:25;4.00;;;2.08;;
14892;SDS011;7538;53.626;9.906;2023-04-26T07:33:51;5.63;;;2.35;;
14892;SDS011;7538;53.626;9.906;2023-04-26T07:36:18;6.97;;;2.35;;
14892;SDS011;7538;53.626;9.906;2023-04-26T07:38:45;4.70;;;2.22;;
14892;SDS011;7538;53.626;9.906;2023-04-26T07:41:13;4.25;;;1.98;;
14892;SDS011;7538;53.626;9.906;2023-04-26T07:43:41;4.22;;;2.10;;
14892;SDS011;7538;53.626;9.906;2023-04-26T07:46:08;10.73;;;4.50;;
14892;SDS011;7538;53.626;9.906;2023-04-26T07:48:35;8.05;;;3.42;;
14892;SDS011;7538;53.626;9.906;2023-04-26T07:51:08;3.13;;;1.88;;
14892;SDS011;7538;53.626;9.906;2023-04-26T07:53:36;3.60;;;1.48;;
14892;SDS011;7538;53.626;9.906;2023-04-26T07:56:03;2.30;;;1.25;;
14892;SDS011;7538;53.626;9.906;2023-04-26T07:58:32;2.67;;;1.42;;
14892;SDS011;7538;53.626;9.906;2023-04-26T08:00:59;3.78;;;1.45;;
14892;SDS011;7538;53.626;9.906;2023-04-26T08:03:26;3.70;;;1.42;;
14892;SDS011;7538;53.626;9.906;2023-04-26T08:05:53;3.72;;;1.75;;
14892;SDS011;7538;53.626;9.906;2023-04-26T08:08:19;2.47;;;1.50;;
14892;SDS011;7538;53.626;9.906;2023-04-26T08:10:47;5.68;;;1.90;;
14892;SDS011;7538;53.626;9.906;2023-04-26T08:13:14;2.22;;;1.42;;
14892;SDS011;7538;53.626;9.906;2023-04-26T08:15:42;5.05;;;1.75;;
14892;SDS011;7538;53.626;9.906;2023-04-26T08:18:09;4.13;;;1.80;;
14892;SDS011;7538;53.626;9.906;2023-04-26T08:20:36;2.63;;;1.52;;
14892;SDS011;7538;53.626;9.906;2023-04-26T08:23:03;3.20;;;1.20;;
14892;SDS011;7538;53.626;9.906;2023-04-26T08:25:30;1.83;;;1.45;;
14892;SDS011;7538;53.626;9.906;2023-04-26T08:27:58;3.58;;;1.80;;
14892;SDS011;7538;53.626;9.906;2023-04-26T08:30:25;3.85;;;1.70;;
14892;SDS011;7538;53.626;9.906;2023-04-26T08:32:55;4.55;;;2.03;;
14892;SDS011;7538;53.626;9.906;2023-04-26T08:35:21;5.60;;;1.88;;
14892;SDS011;7538;53.626;9.906;2023-04-26T08:37:48;4.07;;;1.95;;
14892;SDS011;7538;53.626;9.906;2023-04-26T08:40:19;4.57;;;1.92;;
14892;SDS011;7538;53.626;9.906;2023-04-26T08:42:48;3.42;;;1.75;;
14892;SDS011;7538;53.626;9.906;2023-04-26T08:45:17;3.80;;;1.80;;
14892;SDS011;7538;53.626;9.906;2023-04-26T08:47:46;3.88;;;1.92;;
14892;SDS011;7538;53.626;9.906;2023-04-26T08:50:17;4.13;;;1.90;;
14892;SDS011;7538;53.626;9.906;2023-04-26T08:52:46;4.00;;;1.55;;
14892;SDS011;7538;53.626;9.906;2023-04-26T08:55:14;5.95;;;2.15;;
14892;SDS011;7538;53.626;9.906;2023-04-26T08:57:42;4.32;;;1.73;;
14892;SDS011;7538;53.626;9.906;2023-04-26T09:00:11;3.00;;;2.00;;
14892;SDS011;7538;53.626;9.906;2023-04-26T09:02:40;3.67;;;2.03;;
14892;SDS011;7538;53.626;9.906;2023-04-26T09:05:08;5.18;;;2.15;;
14892;SDS011;7538;53.626;9.906;2023-04-26T09:07:38;4.28;;;1.90;;
14892;SDS011;7538;53.626;9.906;2023-04-26T09:10:07;3.60;;;1.75;;
14892;SDS011;7538;53.626;9.906;2023-04-26T09:12:35;5.18;;;1.73;;
14892;SDS011;7538;53.626;9.906;2023-04-26T09:15:02;2.78;;;1.70;;
14892;SDS011;7538;53.626;9.906;2023-04-26T09:17:31;2.88;;;1.55;;
14892;SDS011;7538;53.626;9.906;2023-04-26T09:20:00;4.95;;;1.65;;
14892;SDS011;7538;53.626;9.906;2023-04-26T09:22:43;3.92;;;1.50;;
14892;SDS011;7538;53.626;9.906;2023-04-26T09:25:11;4.35;;;1.52;;
14892;SDS011;7538;53.626;9.906;2023-04-26T09:27:39;3.95;;;1.60;;
14892;SDS011;7538;53.626;9.906;2023-04-26T09:30:08;3.40;;;2.00;;
14892;SDS011;7538;53.626;9.906;2023-04-26T09:32:46;2.30;;;1.63;;
14892;SDS011;7538;53.626;9.906;2023-04-26T09:35:24;1.65;;;1.20;;
14892;SDS011;7538;53.626;9.906;2023-04-26T09:37:54;4.88;;;1.42;;
14892;SDS011;7538;53.626;9.906;2023-04-26T09:40:24;4.20;;;1.42;;
14892;SDS011;7538;53.626;9.906;2023-04-26T09:42:58;2.20;;;1.33;;
14892;SDS011;7538;53.626;9.906;2023-04-26T09:45:27;3.00;;;1.50;;
14892;SDS011;7538;53.626;9.906;2023-04-26T09:47:55;4.70;;;1.33;;
14892;SDS011;7538;53.626;9.906;2023-04-26T09:50:38;1.90;;;1.35;;
14892;SDS011;7538;53.626;9.906;2023-04-26T09:53:06;3.30;;;1.50;;
14892;SDS011;7538;53.626;9.906;2023-04-26T09:55:33;3.05;;;1.42;;
14892;SDS011;7538;53.626;9.906;2023-04-26T09:58:06;2.72;;;1.40;;
14892;SDS011;7538;53.626;9.906;2023-04-26T10:00:34;4.53;;;1.58;;
14892;SDS011;7538;53.626;9.906;2023-04-26T10:03:03;4.32;;;1.23;;
14892;SDS011;7538;53.626;9.906;2023-04-26T10:05:32;4.65;;;1.55;;
14892;SDS011;7538;53.626;9.906;2023-04-26T10:07:59;3.92;;;1.30;;
14892;SDS011;7538;53.626;9.906;2023-04-26T10:10:29;2.80;;;1.25;;
14892;SDS011;7538;53.626;9.906;2023-04-26T10:12:56;2.63;;;1.25;;
14892;SDS011;7538;53.626;9.906;2023-04-26T10:15:23;2.90;;;1.20;;
14892;SDS011;7538;53.626;9.906;2023-04-26T10:17:51;3.25;;;1.35;;
14892;SDS011;7538;53.626;9.906;2023-04-26T10:20:18;4.05;;;1.30;;
14892;SDS011;7538;53.626;9.906;2023-04-26T10:22:49;2.05;;;1.20;;
14892;SDS011;7538;53.626;9.906;2023-04-26T10:25:19;3.30;;;1.25;;
14892;SDS011;7538;53.626;9.906;2023-04-26T10:27:48;4.68;;;1.40;;
14892;SDS011;7538;53.626;9.906;2023-04-26T10:30:17;3.30;;;1.40;;
14892;SDS011;7538;53.626;9.906;2023-04-26T10:35:57;2.88;;;1.10;;
14892;SDS011;7538;53.626;9.906;2023-04-26T10:38:26;2.83;;;1.48;;
14892;SDS011;7538;53.626;9.906;2023-04-26T10:40:53;3.40;;;1.48;;
14892;SDS011;7538;53.626;9.906;2023-04-26T10:43:28;5.47;;;1.85;;
14892;SDS011;7538;53.626;9.906;2023-04-26T10:45:56;3.63;;;1.50;;
14892;SDS011;7538;53.626;9.906;2023-04-26T10:48:43;2.90;;;1.50;;
14892;SDS011;7538;53.626;9.906;2023-04-26T10:51:10;3.00;;;1.10;;
14892;SDS011;7538;53.626;9.906;2023-04-26T10:59:19;3.80;;;1.58;;
14892;SDS011;7538;53.626;9.906;2023-04-26T11:01:47;3.25;;;1.33;;
14892;SDS011;7538;53.626;9.906;2023-04-26T11:04:14;3.78;;;1.52;;
14892;SDS011;7538;53.626;9.906;2023-04-26T11:06:48;3.78;;;1.67;;
14892;SDS011;7538;53.626;9.906;2023-04-26T11:12:05;4.78;;;1.63;;
14892;SDS011;7538;53.626;9.906;2023-04-26T11:14:41;3.35;;;1.60;;
14892;SDS011;7538;53.626;9.906;2023-04-26T11:17:08;3.45;;;1.35;;
14892;SDS011;7538;53.626;9.906;2023-04-26T11:19:35;3.40;;;1.60;;
14892;SDS011;7538;53.626;9.906;2023-04-26T11:22:02;2.55;;;1.35;;
14892;SDS011;7538;53.626;9.906;2023-04-26T11:24:32;1.67;;;1.13;;
14892;SDS011;7538;53.626;9.906;2023-04-26T11:27:01;3.50;;;1.30;;
14892;SDS011;7538;53.626;9.906;2023-04-26T11:29:33;5.93;;;1.45;;
14892;SDS011;7538;53.626;9.906;2023-04-26T11:32:02;3.42;;;1.38;;
14892;SDS011;7538;53.626;9.906;2023-04-26T11:34:32;2.70;;;1.40;;
14892;SDS011;7538;53.626;9.906;2023-04-26T11:37:00;2.13;;;1.00;;
14892;SDS011;7538;53.626;9.906;2023-04-26T11:39:29;4.00;;;1.35;;
14892;SDS011;7538;53.626;9.906;2023-04-26T11:42:03;4.32;;;1.20;;
14892;SDS011;7538;53.626;9.906;2023-04-26T11:44:31;3.97;;;1.20;;
14892;SDS011;7538;53.626;9.906;2023-04-26T11:46:58;4.25;;;1.25;;
14892;SDS011;7538;53.626;9.906;2023-04-26T11:49:29;4.35;;;1.45;;
14892;SDS011;7538;53.626;9.906;2023-04-26T11:51:56;2.10;;;1.20;;
14892;SDS011;7538;53.626;9.906;2023-04-26T11:54:27;4.03;;;1.40;;
14892;SDS011;7538;53.626;9.906;2023-04-26T11:56:55;2.33;;;1.13;;
14892;SDS011;7538;53.626;9.906;2023-04-26T11:59:25;2.22;;;1.30;;
14892;SDS011;7538;53.626;9.906;2023-04-26T12:01:53;5.03;;;1.25;;
14892;SDS011;7538;53.626;9.906;2023-04-26T12:04:25;4.18;;;1.48;;
14892;SDS011;7538;53.626;9.906;2023-04-26T12:06:55;2.83;;;1.55;;
14892;SDS011;7538;53.626;9.906;2023-04-26T12:09:22;5.88;;;1.50;;
14892;SDS011;7538;53.626;9.906;2023-04-26T12:11:52;4.00;;;1.50;;
14892;SDS011;7538;53.626;9.906;2023-04-26T12:14:23;4.95;;;1.30;;
14892;SDS011;7538;53.626;9.906;2023-04-26T12:16:57;3.47;;;1.20;;
14892;SDS011;7538;53.626;9.906;2023-04-26T12:19:25;6.10;;;1.75;;
14892;SDS011;7538;53.626;9.906;2023-04-26T12:21:52;3.25;;;1.33;;
14892;SDS011;7538;53.626;9.906;2023-04-26T12:24:22;2.55;;;1.38;;
14892;SDS011;7538;53.626;9.906;2023-04-26T12:26:49;5.30;;;1.27;;
14892;SDS011;7538;53.626;9.906;2023-04-26T12:29:16;6.28;;;1.30;;
14892;SDS011;7538;53.626;9.906;2023-04-26T12:31:43;2.80;;;1.15;;
14892;SDS011;7538;53.626;9.906;2023-04-26T12:34:11;5.05;;;1.50;;
14892;SDS011;7538;53.626;9.906;2023-04-26T12:36:39;2.58;;;1.30;;
14892;SDS011;7538;53.626;9.906;2023-04-26T12:39:08;3.60;;;1.30;;
14892;SDS011;7538;53.626;9.906;2023-04-26T12:41:37;2.22;;;0.90;;
14892;SDS011;7538;53.626;9.906;2023-04-26T12:44:04;2.70;;;1.10;;
14892;SDS011;7538;53.626;9.906;2023-04-26T12:46:31;2.83;;;1.30;;
14892;SDS011;7538;53.626;9.906;2023-04-26T12:48:58;4.22;;;1.40;;
14892;SDS011;7538;53.626;9.906;2023-04-26T12:51:25;2.97;;;1.20;;
14892;SDS011;7538;53.626;9.906;2023-04-26T12:53:53;2.58;;;1.27;;
14892;SDS011;7538;53.626;9.906;2023-04-26T12:56:22;2.63;;;1.17;;
14892;SDS011;7538;53.626;9.906;2023-04-26T12:58:49;2.60;;;1.08;;
14892;SDS011;7538;53.626;9.906;2023-04-26T13:01:16;3.00;;;1.20;;
14892;SDS011;7538;53.626;9.906;2023-04-26T13:03:43;4.47;;;1.33;;
14892;SDS011;7538;53.626;9.906;2023-04-26T13:06:10;6.22;;;1.65;;
14892;SDS011;7538;53.626;9.906;2023-04-26T13:08:37;3.58;;;1.38;;
14892;SDS011;7538;53.626;9.906;2023-04-26T13:11:04;4.53;;;1.30;;
14892;SDS011;7538;53.626;9.906;2023-04-26T13:13:33;5.28;;;1.15;;
14892;SDS011;7538;53.626;9.906;2023-04-26T13:16:00;4.28;;;1.40;;
14892;SDS011;7538;53.626;9.906;2023-04-26T13:18:26;3.47;;;1.20;;
14892;SDS011;7538;53.626;9.906;2023-04-26T13:20:53;4.78;;;1.73;;
14892;SDS011;7538;53.626;9.906;2023-04-26T13:23:20;3.78;;;1.63;;
14892;SDS011;7538;53.626;9.906;2023-04-26T13:25:48;1.75;;;1.10;;
14892;SDS011;7538;53.626;9.906;2023-04-26T13:28:15;7.68;;;1.20;;
14892;SDS011;7538;53.626;9.906;2023-04-26T13:30:43;3.03;;;0.93;;
14892;SDS011;7538;53.626;9.906;2023-04-26T13:33:10;3.17;;;1.23;;
14892;SDS011;7538;53.626;9.906;2023-04-26T13:35:37;4.07;;;1.40;;
14892;SDS011;7538;53.626;9.906;2023-04-26T13:38:04;3.25;;;1.20;;
14892;SDS011;7538;53.626;9.906;2023-04-26T13:40:31;3.97;;;1.65;;
14892;SDS011;7538;53.626;9.906;2023-04-26T13:42:58;3.42;;;1.48;;
14892;SDS011;7538;53.626;9.906;2023-04-26T13:45:25;4.40;;;1.48;;
14892;SDS011;7538;53.626;9.906;2023-04-26T13:47:54;5.15;;;1.75;;
14892;SDS011;7538;53.626;9.906;2023-04-26T13:50:21;5.50;;;1.60;;
14892;SDS011;7538;53.626;9.906;2023-04-26T13:52:48;3.80;;;1.85;;
14892;SDS011;7538;53.626;9.906;2023-04-26T13:55:17;4.15;;;1.70;;
14892;SDS011;7538;53.626;9.906;2023-04-26T13:57:43;2.55;;;1.17;;
14892;SDS011;7538;53.626;9.906;2023-04-26T14:00:11;3.63;;;1.52;;
14892;SDS011;7538;53.626;9.906;2023-04-26T14:02:39;3.83;;;1.40;;
14892;SDS011;7538;53.626;9.906;2023-04-26T14:05:07;3.03;;;1.48;;
14892;SDS011;7538;53.626;9.906;2023-04-26T14:07:34;2.42;;;1.48;;
14892;SDS011;7538;53.626;9.906;2023-04-26T14:10:01;5.00;;;1.20;;
14892;SDS011;7538;53.626;9.906;2023-04-26T14:12:28;3.65;;;1.20;;
14892;SDS011;7538;53.626;9.906;2023-04-26T14:14:55;3.00;;;1.23;;
14892;SDS011;7538;53.626;9.906;2023-04-26T14:17:21;2.55;;;1.48;;
14892;SDS011;7538;53.626;9.906;2023-04-26T14:19:49;3.90;;;1.38;;
14892;SDS011;7538;53.626;9.906;2023-04-26T14:22:17;4.43;;;1.60;;
14892;SDS011;7538;53.626;9.906;2023-04-26T14:24:45;2.95;;;1.08;;
14892;SDS011;7538;53.626;9.906;2023-04-26T14:27:12;2.53;;;1.30;;
14892;SDS011;7538;53.626;9.906;2023-04-26T14:29:38;3.10;;;1.20;;
14892;SDS011;7538;53.626;9.906;2023-04-26T14:32:05;6.28;;;1.70;;
14892;SDS011;7538;53.626;9.906;2023-04-26T14:34:32;3.08;;;1.40;;
14892;SDS011;7538;53.626;9.906;2023-04-26T14:37:03;2.38;;;1.20;;
14892;SDS011;7538;53.626;9.906;2023-04-26T14:39:31;3.17;;;1.52;;
14892;SDS011;7538;53.626;9.906;2023-04-26T14:41:58;4.40;;;1.10;;
14892;SDS011;7538;53.626;9.906;2023-04-26T14:44:26;3.50;;;1.55;;
14892;SDS011;7538;53.626;9.906;2023-04-26T14:46:53;3.60;;;1.30;;
14892;SDS011;7538;53.626;9.906;2023-04-26T14:49:20;2.67;;;1.38;;
14892;SDS011;7538;53.626;9.906;2023-04-26T14:51:47;6.85;;;1.60;;
14892;SDS011;7538;53.626;9.906;2023-04-26T14:54:14;4.65;;;1.30;;
14892;SDS011;7538;53.626;9.906;2023-04-26T14:56:43;3.42;;;1.52;;
14892;SDS011;7538;53.626;9.906;2023-04-26T14:59:10;3.30;;;1.90;;
14892;SDS011;7538;53.626;9.906;2023-04-26T15:01:37;2.92;;;1.40;;
14892;SDS011;7538;53.626;9.906;2023-04-26T15:04:04;2.75;;;1.30;;
14892;SDS011;7538;53.626;9.906;2023-04-26T15:06:30;3.97;;;1.92;;
14892;SDS011;7538;53.626;9.906;2023-04-26T15:08:58;3.28;;;1.70;;
14892;SDS011;7538;53.626;9.906;2023-04-26T15:11:25;4.03;;;1.30;;
14892;SDS011;7538;53.626;9.906;2023-04-26T15:13:53;4.43;;;1.50;;
14892;SDS011;7538;53.626;9.906;2023-04-26T15:16:20;4.18;;;2.60;;